createdAt,value
2019-01-03T00:02:14.209Z,8.13
2019-01-03T00:05:01.472Z,3.23
2019-01-03T00:07:40.696Z,8.60
2019-01-03T00:10:27.968Z,6.47
2019-01-03T00:13:10.989Z,7.42
2019-01-03T00:15:57.417Z,6.50
2019-01-03T00:18:46.064Z,8.33
2019-01-03T00:21:18.757Z,10.00
2019-01-03T00:24:02.991Z,4.53
2019-01-03T00:26:44.668Z,8.83
2019-01-03T00:29:17.148Z,9.33
2019-01-03T00:31:49.870Z,5.53
2019-01-03T00:34:28.956Z,9.03
2019-01-03T00:37:01.596Z,5.80
2019-01-03T00:39:45.634Z,9.30
2019-01-03T00:42:32.033Z,5.33
2019-01-03T00:45:02.385Z,9.60
2019-01-03T00:47:45.137Z,8.30
2019-01-03T00:50:34.446Z,11.75
2019-01-03T00:53:16.032Z,9.05
2019-01-03T00:55:58.816Z,12.87
2019-01-03T00:58:38.052Z,8.43
2019-01-03T01:01:10.645Z,9.83
2019-01-03T01:03:54.512Z,10.00
2019-01-03T01:06:27.169Z,8.70
2019-01-03T01:09:18.496Z,12.58
2019-01-03T01:12:05.793Z,16.13
2019-01-03T01:14:48.165Z,9.48
2019-01-03T01:17:36.500Z,10.15
2019-01-03T01:20:23.784Z,6.70
2019-01-03T01:23:11.124Z,12.43
2019-01-03T01:25:59.400Z,5.60
2019-01-03T01:28:40.564Z,7.12
2019-01-03T01:31:13.147Z,9.38
2019-01-03T01:34:03.380Z,15.55
2019-01-03T01:36:47.160Z,7.30
2019-01-03T01:39:34.436Z,8.75
2019-01-03T01:42:19.816Z,7.08
2019-01-03T01:45:07.124Z,6.87
2019-01-03T01:47:45.756Z,10.38
2019-01-03T01:50:32.123Z,11.43
2019-01-03T01:53:04.607Z,6.30
2019-01-03T01:55:43.325Z,9.48
2019-01-03T01:58:28.868Z,9.47
2019-01-03T02:01:06.036Z,9.90
2019-01-03T02:03:52.514Z,11.13
2019-01-03T02:06:43.768Z,11.63
2019-01-03T02:09:16.273Z,9.88
2019-01-03T02:12:02.638Z,14.53
2019-01-03T02:14:35.213Z,9.18
2019-01-03T02:17:07.750Z,9.33
2019-01-03T02:19:40.340Z,4.93
2019-01-03T02:22:12.854Z,9.35
2019-01-03T02:24:58.936Z,10.77
2019-01-03T02:27:39.871Z,10.20
2019-01-03T02:30:12.738Z,5.90
2019-01-03T02:33:00.142Z,9.98
2019-01-03T02:35:40.129Z,10.83
2019-01-03T02:38:32.395Z,8.05
2019-01-03T02:41:21.639Z,13.80
2019-01-03T02:44:08.037Z,8.75
2019-01-03T02:46:54.395Z,9.35
2019-01-03T02:49:41.716Z,4.93
2019-01-03T02:52:24.522Z,6.45
2019-01-03T02:55:11.780Z,9.20
2019-01-03T02:57:59.224Z,14.15
2019-01-03T03:00:47.584Z,8.10
2019-01-03T03:03:31.765Z,8.83
2019-01-03T03:06:04.402Z,10.28
2019-01-03T03:08:50.790Z,9.30
2019-01-03T03:11:37.300Z,6.83
2019-01-03T03:14:09.758Z,7.37
2019-01-03T03:16:56.126Z,11.75
2019-01-03T03:19:33.492Z,3.90
2019-01-03T03:22:06.004Z,10.20
2019-01-03T03:24:56.354Z,10.10
2019-01-03T03:27:45.785Z,6.70
2019-01-03T03:30:18.213Z,10.28
2019-01-03T03:33:05.942Z,13.20
2019-01-03T03:35:46.505Z,11.00
2019-01-03T03:38:32.496Z,9.77
2019-01-03T03:41:05.129Z,14.23
2019-01-03T03:43:37.817Z,12.83
2019-01-03T03:46:24.193Z,11.80
2019-01-03T03:49:13.540Z,7.23
2019-01-03T03:51:46.021Z,15.68
2019-01-03T03:54:18.769Z,9.98
2019-01-03T03:56:51.327Z,7.67
2019-01-03T03:59:37.217Z,9.23
2019-01-03T04:02:25.564Z,7.83
2019-01-03T04:05:08.884Z,10.57
2019-01-03T04:07:41.709Z,12.83
2019-01-03T04:10:22.476Z,9.90
2019-01-03T04:13:10.673Z,9.15
2019-01-03T04:15:52.163Z,7.03
2019-01-03T04:18:37.308Z,11.03
2019-01-03T04:21:24.615Z,11.22
2019-01-03T04:24:16.019Z,7.83
2019-01-03T04:27:00.012Z,14.85
2019-01-03T04:29:32.735Z,14.28
2019-01-03T04:32:23.121Z,7.43
2019-01-03T04:35:08.402Z,60.65
2019-01-03T04:37:48.336Z,140.88
2019-01-03T04:40:31.787Z,26.20
2019-01-03T04:43:04.285Z,13.90
2019-01-03T04:45:36.815Z,9.50
2019-01-03T04:48:17.367Z,9.05
2019-01-03T04:51:06.549Z,7.60
2019-01-03T04:53:39.201Z,8.73
2019-01-03T04:56:31.599Z,7.57
2019-01-03T04:59:22.195Z,10.80
2019-01-03T05:01:56.064Z,8.10
2019-01-03T05:04:48.377Z,6.13
2019-01-03T05:07:32.648Z,12.25
2019-01-03T05:10:23.962Z,10.75
2019-01-03T05:12:56.553Z,5.97
2019-01-03T05:15:33.526Z,13.37
2019-01-03T05:18:13.870Z,11.53
2019-01-03T05:20:57.559Z,11.00
2019-01-03T05:23:48.981Z,12.55
2019-01-03T05:26:31.929Z,9.87
2019-01-03T05:29:18.305Z,17.20
2019-01-03T05:31:50.775Z,14.45
2019-01-03T05:34:23.425Z,9.83
2019-01-03T05:37:00.814Z,11.93
2019-01-03T05:39:49.172Z,15.25
2019-01-03T05:42:34.272Z,15.40
2019-01-03T05:45:12.225Z,11.53
2019-01-03T05:47:58.604Z,11.73
2019-01-03T05:50:31.199Z,10.53
2019-01-03T05:53:23.556Z,10.20
2019-01-03T05:55:56.217Z,10.93
2019-01-03T05:58:44.539Z,11.33
2019-01-03T06:01:30.964Z,11.35
2019-01-03T06:04:07.101Z,12.82
2019-01-03T06:06:56.448Z,10.80
2019-01-03T06:09:41.709Z,10.20
2019-01-03T06:12:28.894Z,11.78
2019-01-03T06:15:11.784Z,10.33
2019-01-03T06:18:02.144Z,12.77
2019-01-03T06:20:32.503Z,11.03
2019-01-03T06:23:24.880Z,18.70
2019-01-03T06:26:05.769Z,9.40
2019-01-03T06:28:39.276Z,9.55
2019-01-03T06:31:23.072Z,10.80
2019-01-03T06:34:10.242Z,8.70
2019-01-03T06:36:42.962Z,14.95
2019-01-03T06:39:30.338Z,13.43
2019-01-03T06:42:19.548Z,6.80
2019-01-03T06:45:07.729Z,10.95
2019-01-03T06:47:40.233Z,13.08
2019-01-03T06:50:23.084Z,16.20
2019-01-03T06:53:09.476Z,9.35
2019-01-03T06:55:56.409Z,12.18
2019-01-03T06:58:44.821Z,11.53
2019-01-03T07:01:27.588Z,12.85
2019-01-03T07:04:14.158Z,13.17
2019-01-03T07:06:46.770Z,13.80
2019-01-03T07:09:30.681Z,11.80
2019-01-03T07:12:22.940Z,13.95
2019-01-03T07:14:55.368Z,10.43
2019-01-03T07:17:45.677Z,15.27
2019-01-03T07:20:27.381Z,17.45
2019-01-03T07:24:54.232Z,15.87
2019-01-03T07:27:38.221Z,13.25
2019-01-03T07:30:27.836Z,14.63
2019-01-03T07:33:13.597Z,21.30
2019-01-03T07:36:02.045Z,14.00
2019-01-03T07:38:48.593Z,12.67
2019-01-03T07:41:40.891Z,15.13
2019-01-03T07:44:32.428Z,11.97
2019-01-03T07:47:23.880Z,10.95
2019-01-03T07:49:56.697Z,10.70
2019-01-03T07:52:44.684Z,10.13
2019-01-03T07:55:17.500Z,13.45
2019-01-03T07:57:50.135Z,10.03
2019-01-03T08:00:37.461Z,12.97
2019-01-03T08:03:26.894Z,12.53
2019-01-03T08:06:12.069Z,12.70
2019-01-03T08:08:59.392Z,14.05
2019-01-03T08:11:48.748Z,13.63
2019-01-03T08:14:36.800Z,12.68
2019-01-03T08:17:26.108Z,15.83
2019-01-03T08:19:58.830Z,8.80
2019-01-03T08:22:45.145Z,14.93
2019-01-03T08:25:17.725Z,17.50
2019-01-03T08:28:02.569Z,10.77
2019-01-03T08:30:35.262Z,14.00
2019-01-03T08:33:08.033Z,11.30
2019-01-03T08:35:53.427Z,14.13
2019-01-03T08:38:38.777Z,15.50
2019-01-03T08:41:11.726Z,10.43
2019-01-03T08:43:44.390Z,14.75
2019-01-03T08:46:33.040Z,12.93
2019-01-03T08:49:14.188Z,9.80
2019-01-03T08:51:46.804Z,15.18
2019-01-03T08:54:31.591Z,15.10
2019-01-03T08:57:24.016Z,14.40
2019-01-03T09:00:06.582Z,12.50
2019-01-03T09:02:53.036Z,15.15
2019-01-03T09:05:39.489Z,11.10
2019-01-03T09:08:23.724Z,15.80
2019-01-03T09:10:56.441Z,13.73
2019-01-03T09:13:29.561Z,16.90
2019-01-03T09:16:14.149Z,16.07
2019-01-03T09:18:56.765Z,15.10
2019-01-03T09:21:29.378Z,14.80
2019-01-03T09:24:21.937Z,13.50
2019-01-03T09:27:12.412Z,16.77
2019-01-03T09:29:52.840Z,12.83
2019-01-03T09:32:41.104Z,14.73
2019-01-03T09:35:29.472Z,13.13
2019-01-03T09:38:10.708Z,18.30
2019-01-03T09:40:58.051Z,13.93
2019-01-03T09:43:40.340Z,13.68
2019-01-03T09:46:07.163Z,14.13
2019-01-03T09:48:33.996Z,13.72
2019-01-03T09:51:00.876Z,17.00
2019-01-03T09:53:27.730Z,17.40
2019-01-03T09:55:54.592Z,17.43
2019-01-03T09:58:21.432Z,17.48
2019-01-03T10:00:48.269Z,21.52
2019-01-03T10:03:15.086Z,14.93
2019-01-03T10:05:41.912Z,17.20
2019-01-03T10:08:08.733Z,14.63
2019-01-03T10:10:35.544Z,18.85
2019-01-03T10:13:02.384Z,11.40
2019-01-03T10:15:29.204Z,12.47
2019-01-03T10:17:56.007Z,17.85
2019-01-03T10:20:22.829Z,12.97
2019-01-03T10:22:49.642Z,17.73
2019-01-03T10:25:16.466Z,13.63
2019-01-03T10:27:43.281Z,16.32
2019-01-03T10:30:10.100Z,16.70
2019-01-03T10:32:36.916Z,17.37
2019-01-03T10:35:03.837Z,16.80
2019-01-03T10:37:30.649Z,12.65
2019-01-03T10:39:57.472Z,15.60
2019-01-03T10:42:24.302Z,20.20
2019-01-03T10:44:51.138Z,15.18
2019-01-03T10:47:17.961Z,22.73
2019-01-03T10:49:44.772Z,18.30
2019-01-03T10:52:11.584Z,18.62
2019-01-03T10:54:38.396Z,19.77
2019-01-03T10:57:05.225Z,17.77
2019-01-03T10:59:32.068Z,14.40
2019-01-03T11:01:58.880Z,22.22
2019-01-03T11:04:25.700Z,14.77
2019-01-03T11:06:52.509Z,19.80
2019-01-03T11:09:19.328Z,22.90
2019-01-03T11:11:46.140Z,21.65
2019-01-03T11:14:12.961Z,25.10
2019-01-03T11:16:39.785Z,30.20
2019-01-03T11:19:06.613Z,24.83
2019-01-03T11:21:33.427Z,30.80
2019-01-03T11:24:00.277Z,22.55
2019-01-03T11:26:27.089Z,19.33
2019-01-03T11:28:53.901Z,19.92
2019-01-03T11:31:20.712Z,16.50
2019-01-03T11:33:47.529Z,20.60
2019-01-03T11:36:14.353Z,19.07
2019-01-03T11:41:11.394Z,19.63
2019-01-03T11:43:38.166Z,19.83
2019-01-03T11:46:04.938Z,24.30
2019-01-03T11:48:31.671Z,32.53
2019-01-03T11:50:58.416Z,31.87
2019-01-03T11:53:25.182Z,26.80
2019-01-03T11:55:51.984Z,29.33
2019-01-03T11:58:18.721Z,91.47
2019-01-03T12:00:45.459Z,51.60
2019-01-03T12:03:12.208Z,21.97
2019-01-03T12:05:38.948Z,22.13
2019-01-03T12:08:05.702Z,19.03
2019-01-03T12:10:32.565Z,21.67
2019-01-03T12:12:59.304Z,15.90
2019-01-03T12:15:26.073Z,26.17
2019-01-03T12:17:52.812Z,18.80
2019-01-03T12:20:19.572Z,22.77
2019-01-03T12:22:46.324Z,21.27
2019-01-03T12:25:13.097Z,23.20
2019-01-03T12:27:39.816Z,21.73
2019-01-03T12:30:08.109Z,19.67
2019-01-03T12:32:34.933Z,23.00
2019-01-03T12:35:01.705Z,26.63
2019-01-03T12:37:28.456Z,26.90
2019-01-03T12:39:55.233Z,25.90
2019-01-03T12:42:22.000Z,21.93
2019-01-03T12:44:48.772Z,24.40
2019-01-03T12:47:15.508Z,22.75
2019-01-03T12:49:42.267Z,22.90
2019-01-03T12:52:09.045Z,24.47
2019-01-03T12:54:35.817Z,23.40
2019-01-03T12:57:02.573Z,23.90
2019-01-03T12:59:29.316Z,17.10
2019-01-03T13:01:56.056Z,23.00
2019-01-03T13:04:22.828Z,20.70
2019-01-03T13:06:49.574Z,26.27
2019-01-03T13:09:18.780Z,29.40
2019-01-03T13:11:46.224Z,21.30
2019-01-03T13:14:12.964Z,21.77
2019-01-03T13:16:39.692Z,19.03
2019-01-03T13:19:06.440Z,19.97
2019-01-03T13:21:33.232Z,28.23
2019-01-03T13:23:59.973Z,21.43
2019-01-03T13:26:26.740Z,25.33
2019-01-03T13:28:53.484Z,27.47
2019-01-03T13:31:20.246Z,26.90
2019-01-03T13:33:46.996Z,22.20
2019-01-03T13:36:13.761Z,24.83
2019-01-03T13:38:40.509Z,22.13
2019-01-03T13:41:07.269Z,20.43
2019-01-03T13:43:34.080Z,24.00
2019-01-03T13:46:00.839Z,26.03
2019-01-03T13:48:27.572Z,26.93
2019-01-03T13:50:54.324Z,22.13
2019-01-03T13:53:21.069Z,22.03
2019-01-03T13:55:47.832Z,26.50
2019-01-03T13:58:14.585Z,28.97
2019-01-03T14:00:41.332Z,27.43
2019-01-03T14:03:08.081Z,29.13
2019-01-03T14:05:34.841Z,26.80
2019-01-03T14:08:01.632Z,22.73
2019-01-03T14:10:28.372Z,26.07
2019-01-03T14:12:55.112Z,30.40
2019-01-03T14:15:21.890Z,18.63
2019-01-03T14:17:48.627Z,27.90
2019-01-03T14:20:15.380Z,33.03
2019-01-03T14:22:42.141Z,28.73
2019-01-03T14:25:08.892Z,27.53
2019-01-03T14:27:35.652Z,27.80
2019-01-03T14:30:02.444Z,25.40
2019-01-03T14:32:29.200Z,26.70
2019-01-03T14:34:55.945Z,24.97
2019-01-03T14:37:22.712Z,25.03
2019-01-03T14:39:49.432Z,25.40
2019-01-03T14:42:16.201Z,24.13
2019-01-03T14:44:42.935Z,37.80
2019-01-03T14:47:09.684Z,32.47
2019-01-03T14:49:36.427Z,26.70
2019-01-03T14:52:03.184Z,25.90
2019-01-03T14:54:29.940Z,19.97
2019-01-03T14:56:56.709Z,31.20
2019-01-03T14:59:23.460Z,31.85
2019-01-03T15:01:50.244Z,34.17
2019-01-03T15:04:16.996Z,33.78
2019-01-03T15:06:43.752Z,38.57
2019-01-03T15:09:10.505Z,35.00
2019-01-03T15:11:37.249Z,37.70
2019-01-03T15:14:03.988Z,25.67
2019-01-03T15:16:30.741Z,31.20
2019-01-03T15:18:57.484Z,27.00
2019-01-03T15:21:24.260Z,30.87
2019-01-03T15:23:51.006Z,29.70
2019-01-03T15:26:17.756Z,30.53
2019-01-03T15:28:44.484Z,22.73
2019-01-03T15:31:11.257Z,22.10
2019-01-03T15:33:37.987Z,21.47
2019-01-03T15:36:04.853Z,24.30
2019-01-03T15:38:31.584Z,25.90
2019-01-03T15:40:58.342Z,18.57
2019-01-03T15:43:25.080Z,27.20
2019-01-03T15:45:51.832Z,30.20
2019-01-03T15:48:18.581Z,22.30
2019-01-03T15:50:45.326Z,31.60
2019-01-03T15:53:12.080Z,32.60
2019-01-03T15:55:38.827Z,29.30
2019-01-03T15:58:05.589Z,23.93
2019-01-03T16:00:32.344Z,31.43
2019-01-03T16:02:59.108Z,26.27
2019-01-03T16:05:25.864Z,24.30
2019-01-03T16:07:52.608Z,28.60
2019-01-03T16:10:19.348Z,23.43
2019-01-03T16:12:46.114Z,23.60
2019-01-03T16:15:12.840Z,22.93
2019-01-03T16:17:39.613Z,27.23
2019-01-03T16:20:07.048Z,24.33
2019-01-03T16:22:33.801Z,30.50
2019-01-03T16:25:00.552Z,37.33
2019-01-03T16:27:27.311Z,25.63
2019-01-03T16:29:54.041Z,26.57
2019-01-03T16:32:20.799Z,31.63
2019-01-03T16:34:47.528Z,23.17
2019-01-03T16:37:14.280Z,28.03
2019-01-03T16:39:41.100Z,32.63
2019-01-03T16:42:07.854Z,26.00
2019-01-03T16:44:34.600Z,24.97
2019-01-03T16:47:01.364Z,25.23
2019-01-03T16:49:28.124Z,24.10
2019-01-03T16:51:54.887Z,30.27
2019-01-03T16:54:21.620Z,31.70
2019-01-03T16:56:48.394Z,25.10
2019-01-03T16:59:15.176Z,28.17
2019-01-03T17:01:41.937Z,20.90
2019-01-03T17:04:08.693Z,29.77
2019-01-03T17:06:35.459Z,35.57
2019-01-03T17:09:02.268Z,23.07
2019-01-03T17:11:29.016Z,28.70
2019-01-03T17:13:55.784Z,28.80
2019-01-03T17:16:22.525Z,30.68
2019-01-03T17:18:49.296Z,22.37
2019-01-03T17:21:16.028Z,27.23
2019-01-03T17:23:42.788Z,25.97
2019-01-03T17:26:09.527Z,31.07
2019-01-03T17:28:36.313Z,25.37
2019-01-03T17:31:03.044Z,33.63
2019-01-03T17:33:29.820Z,26.23
2019-01-03T17:35:56.569Z,27.13
2019-01-03T17:38:23.347Z,29.90
2019-01-03T17:40:50.088Z,28.00
2019-01-03T17:43:16.852Z,23.87
2019-01-03T17:45:43.610Z,24.70
2019-01-03T17:48:10.360Z,30.20
2019-01-03T17:50:37.112Z,27.30
2019-01-03T17:53:03.871Z,28.10
2019-01-03T17:55:30.624Z,35.10
2019-01-03T17:57:57.392Z,34.15
2019-01-03T18:00:24.133Z,37.13
2019-01-03T18:02:51.416Z,31.83
2019-01-03T18:05:18.161Z,27.23
2019-01-03T18:07:44.942Z,34.13
2019-01-03T18:10:12.345Z,32.43
2019-01-03T18:12:39.112Z,26.20
2019-01-03T18:15:06.292Z,33.13
2019-01-03T18:17:33.016Z,31.10
2019-01-03T18:19:59.792Z,30.33
2019-01-03T18:22:26.545Z,32.93
2019-01-03T18:24:53.299Z,23.63
2019-01-03T18:27:20.044Z,33.40
2019-01-03T18:29:46.809Z,25.00
2019-01-03T18:32:13.552Z,31.20
2019-01-03T18:34:40.312Z,33.83
2019-01-03T18:37:07.052Z,28.67
2019-01-03T18:39:33.833Z,35.53
2019-01-03T18:42:00.564Z,25.50
2019-01-03T18:44:27.319Z,27.43
2019-01-03T18:46:54.069Z,29.90
2019-01-03T18:49:20.845Z,38.10
2019-01-03T18:51:47.616Z,28.97
2019-01-03T18:54:14.389Z,28.33
2019-01-03T18:56:41.165Z,29.23
2019-01-03T18:59:07.961Z,38.03
2019-01-03T19:01:34.700Z,34.73
2019-01-03T19:04:01.452Z,29.13
2019-01-03T19:06:28.204Z,35.90
2019-01-03T19:08:54.964Z,32.63
2019-01-03T19:11:21.704Z,38.57
2019-01-03T19:13:48.958Z,36.13
2019-01-03T19:16:15.212Z,40.70
2019-01-03T19:18:41.956Z,26.27
2019-01-03T19:21:08.736Z,31.37
2019-01-03T19:23:35.484Z,25.53
2019-01-03T19:26:02.227Z,24.67
2019-01-03T19:28:29.020Z,21.53
2019-01-03T19:30:55.773Z,31.15
2019-01-03T19:33:22.537Z,29.50
2019-01-03T19:35:49.284Z,25.97
2019-01-03T19:38:16.040Z,32.47
2019-01-03T19:40:42.792Z,26.53
2019-01-03T19:43:09.564Z,26.60
2019-01-03T19:45:36.312Z,23.73
2019-01-03T19:48:03.065Z,29.90
2019-01-03T19:50:29.806Z,26.93
2019-01-03T19:52:56.552Z,26.50
2019-01-03T19:55:23.288Z,40.03
2019-01-03T19:57:50.060Z,35.87
2019-01-03T20:00:16.809Z,26.93
2019-01-03T20:02:43.589Z,28.63
2019-01-03T20:05:10.330Z,31.42
2019-01-03T20:07:37.121Z,33.27
2019-01-03T20:10:06.024Z,31.10
2019-01-03T20:12:32.800Z,32.58
2019-01-03T20:14:59.608Z,26.47
2019-01-03T20:17:26.368Z,31.93
2019-01-03T20:19:53.128Z,27.13
2019-01-03T20:22:19.897Z,29.80
2019-01-03T20:24:46.649Z,30.32
2019-01-03T20:27:13.440Z,28.80
2019-01-03T20:29:40.198Z,30.33
2019-01-03T20:32:06.958Z,29.13
2019-01-03T20:34:33.698Z,22.03
2019-01-03T20:37:00.444Z,21.80
2019-01-03T20:39:27.213Z,23.77
2019-01-03T20:41:53.967Z,31.37
2019-01-03T20:44:20.741Z,33.70
2019-01-03T20:46:47.501Z,27.75
2019-01-03T20:49:14.264Z,30.50
2019-01-03T20:51:40.992Z,33.88
2019-01-03T20:54:07.760Z,33.63
2019-01-03T20:56:34.586Z,28.93
2019-01-03T20:59:01.273Z,30.57
2019-01-03T21:01:28.025Z,28.60
2019-01-03T21:03:54.792Z,25.33
2019-01-03T21:06:21.542Z,28.33
2019-01-03T21:08:48.325Z,40.30
2019-01-03T21:11:15.068Z,32.95
2019-01-03T21:13:41.832Z,30.60
2019-01-03T21:16:08.581Z,31.03
2019-01-03T21:18:35.338Z,30.83
2019-01-03T21:21:02.085Z,33.03
2019-01-03T21:23:28.858Z,32.60
2019-01-03T21:25:55.725Z,27.60
2019-01-03T21:28:22.365Z,25.50
2019-01-03T21:30:49.106Z,27.13
2019-01-03T21:33:15.868Z,28.27
2019-01-03T21:35:42.624Z,23.27
2019-01-03T21:38:09.372Z,27.07
2019-01-03T21:40:36.124Z,28.13
2019-01-03T21:43:02.896Z,25.53
2019-01-03T21:45:29.656Z,28.57
2019-01-03T21:47:56.412Z,28.57
2019-01-03T21:50:23.171Z,29.43
2019-01-03T21:52:49.936Z,31.87
2019-01-03T21:55:16.683Z,32.17
2019-01-03T21:57:43.420Z,35.80
2019-01-03T22:00:11.611Z,32.10
2019-01-03T22:02:38.371Z,23.93
2019-01-03T22:05:05.163Z,28.87
2019-01-03T22:07:31.896Z,31.10
2019-01-03T22:09:58.673Z,38.50
2019-01-03T22:12:25.407Z,25.83
2019-01-03T22:14:52.176Z,36.10
2019-01-03T22:17:18.925Z,36.37
2019-01-03T22:19:45.704Z,36.33
2019-01-03T22:22:12.471Z,39.05
2019-01-03T22:24:39.236Z,41.93
2019-01-03T22:27:05.968Z,28.53
2019-01-03T22:29:32.728Z,27.10
2019-01-03T22:31:59.464Z,38.17
2019-01-03T22:34:26.229Z,35.40
2019-01-03T22:36:52.998Z,24.53
2019-01-03T22:39:19.796Z,37.40
2019-01-03T22:41:46.530Z,28.07
2019-01-03T22:44:13.289Z,27.77
2019-01-03T22:46:40.031Z,35.95
2019-01-03T22:49:06.776Z,21.67
2019-01-03T22:51:33.517Z,25.33
2019-01-03T22:54:00.408Z,29.23
2019-01-03T22:56:27.121Z,27.23
2019-01-03T22:58:53.873Z,26.97
2019-01-03T23:01:20.625Z,21.70
2019-01-03T23:03:47.378Z,26.00
2019-01-03T23:06:14.125Z,26.50
2019-01-03T23:08:40.899Z,28.83
2019-01-03T23:11:07.657Z,30.10
2019-01-03T23:13:34.412Z,28.33
2019-01-03T23:16:01.181Z,30.90
2019-01-03T23:18:31.570Z,32.87
2019-01-03T23:20:54.676Z,26.13
2019-01-03T23:23:21.413Z,23.67
2019-01-03T23:25:48.168Z,29.53
2019-01-03T23:28:14.920Z,24.40
2019-01-03T23:30:41.668Z,21.17
2019-01-03T23:33:08.417Z,27.60
2019-01-03T23:35:35.176Z,23.17
2019-01-03T23:38:01.916Z,28.33
2019-01-03T23:40:28.670Z,31.70
2019-01-03T23:42:55.421Z,32.37
2019-01-03T23:45:23.305Z,33.03
2019-01-03T23:47:56.117Z,24.87
2019-01-03T23:50:25.845Z,29.33
2019-01-03T23:52:52.593Z,24.60
2019-01-03T23:55:19.361Z,23.87
2019-01-03T23:57:46.098Z,26.80
